Witten, South Dakota
Current Conditions -  °F | °C
As of 2:53 AM on Monday 22 Dec 2014 (Local Time) from KICR Reporting Station
Overcast Overcast  
Wind Chill: 30°   Ceiling: 800
Heat Index: 39°   Visibility: 9mi
Dew Point: 36°   Wind: 16mph
Humidity: 89%   Direction: 290°WNW
Pressure: 29.45"   Gusts: NA
Location:  43.44°N, 100.08°W
Report Text: KICR 220853Z AUTO 29014KT 9SM OVC008 04/02 A2945 RMK AO2 RAE12 SLP980 P0000 60000 T00390022 53002
Loading
Personal Weather Stations






























Interactive Weather Map New forecast layout! Learn more

10-Day Weather Forecast

Advertisements
Track Severe Weather on mobile